Terminal Aerodrome Forecast
Issued by NWS

Home | Current Version | Previous Version | Graphics & Text | Print | Product List | Glossary On
Versions: 1 2 3 4 5 6 7 8 9 10 11 12 13 14 15 16 17 18 19 20
844
FTUS43 KIWX 122218 AAB
TAFSBN
TAF AMD
KSBN 122218Z 1222/1318 29010KT P6SM -SHSN OVC040
     FM130400 26006KT P6SM OVC070
     FM131200 16010KT 4SM -SN OVC050=

USA.gov is the U.S. government's official web portal to all federal, state and local government web resources and services.